Time;durP1;ratioP1;P1;durP2;ratioP2;P2;SDS_P1;SDS_P2;PMS_P1;PMS_P2;Temp;Humidity;BMP_temperature;BMP_pressure;BME280_temperature;BME280_humidity;BME280_pressure;Samples;Min_cycle;Max_cycle;Signal;HPM_P1;HPM_P2
2022/12/12 00:01:33;;;;;;;18.77;13.63;;;-0.10;99.90;;;;;;5093502;28;20242;-77
2022/12/12 00:03:59;;;;;;;16.83;13.90;;;-0.10;99.90;;;;;;5093927;28;20191;-77
2022/12/12 00:06:26;;;;;;;20.20;13.63;;;-0.20;99.90;;;;;;5082742;28;20204;-76
2022/12/12 00:08:51;;;;;;;20.23;14.67;;;-0.20;99.90;;;;;;5073148;28;20771;-77
2022/12/12 00:11:18;;;;;;;24.57;15.50;;;-0.30;99.90;;;;;;5073806;28;20209;-77
2022/12/12 00:13:44;;;;;;;19.50;16.47;;;-0.30;99.90;;;;;;5075009;28;20195;-77
2022/12/12 00:16:10;;;;;;;23.03;16.97;;;-0.40;99.90;;;;;;5075092;28;20170;-77
2022/12/12 00:18:37;;;;;;;19.90;16.27;;;-0.40;99.90;;;;;;5074233;28;20200;-77
2022/12/12 00:21:06;;;;;;;20.20;15.80;;;-0.50;99.90;;;;;;5073615;28;20184;-76
2022/12/12 00:23:32;;;;;;;20.77;16.30;;;-0.50;99.90;;;;;;5074534;28;20191;-78
2022/12/12 00:26:01;;;;;;;20.80;15.80;;;-0.50;99.90;;;;;;5075597;28;20183;-74
2022/12/12 00:28:28;;;;;;;24.00;17.37;;;-0.50;99.90;;;;;;5074021;28;20210;-75
2022/12/12 00:30:54;;;;;;;26.57;16.83;;;-0.50;99.90;;;;;;5083154;28;20223;-78
2022/12/12 00:33:20;;;;;;;29.67;17.10;;;-0.50;99.90;;;;;;5092273;28;20237;-76
2022/12/12 00:35:50;;;;;;;27.50;17.57;;;-0.40;99.90;;;;;;5092342;28;20177;-76
2022/12/12 00:38:17;;;;;;;24.53;17.57;;;-0.40;99.90;;;;;;5092054;28;20280;-78
2022/12/12 00:40:43;;;;;;;28.70;19.00;;;-0.40;99.90;;;;;;5092467;28;20211;-78
2022/12/12 00:43:09;;;;;;;25.63;17.23;;;-0.40;99.90;;;;;;5092731;28;20224;-76
2022/12/12 00:45:36;;;;;;;23.30;17.13;;;-0.40;99.90;;;;;;5083985;28;20181;-78
2022/12/12 00:48:03;;;;;;;20.97;14.93;;;-0.40;99.90;;;;;;5102023;22;20375;-88
2022/12/12 00:50:33;;;;;;;20.53;15.97;;;-0.40;99.90;;;;;;5099276;28;20204;-86
2022/12/12 00:52:59;;;;;;;21.87;17.57;;;-0.40;99.90;;;;;;5096750;28;20226;-87
2022/12/12 00:55:31;;;;;;;24.70;17.67;;;-0.50;99.90;;;;;;5087694;28;20178;-86
2022/12/12 00:58:00;;;;;;;23.00;17.53;;;-0.40;99.90;;;;;;5101296;28;20269;-86
2022/12/12 01:00:27;;;;;;;19.07;16.13;;;-0.50;99.90;;;;;;5088596;28;20177;-86
2022/12/12 01:02:58;;;;;;;18.13;15.13;;;-0.50;99.90;;;;;;5072151;28;20232;-86
2022/12/12 01:05:37;;;;;;;19.63;16.80;;;-0.50;99.90;;;;;;5057495;28;20177;-86
2022/12/12 01:11:51;;;;;;;19.43;14.73;;;-0.60;99.90;;;;;;5078994;28;20282;-91
2022/12/12 01:14:19;;;;;;;19.97;16.10;;;-0.60;99.90;;;;;;5058692;28;20634;-87
2022/12/12 01:17:17;;;;;;;19.73;16.33;;;-0.60;99.90;;;;;;5075526;28;20204;-88
2022/12/12 01:20:18;;;;;;;19.60;15.47;;;-0.60;99.90;;;;;;5063927;28;20176;-87
2022/12/12 01:22:47;;;;;;;19.63;16.33;;;-0.60;99.90;;;;;;5074539;28;20187;-86
2022/12/12 01:25:16;;;;;;;16.97;14.87;;;-0.60;99.90;;;;;;5058899;28;20182;-86
2022/12/12 01:27:48;;;;;;;20.90;16.47;;;-0.60;99.90;;;;;;5059223;28;20205;-86
2022/12/12 01:30:17;;;;;;;18.33;15.70;;;-0.70;99.90;;;;;;5065560;28;20267;-86
2022/12/12 01:32:44;;;;;;;21.23;16.10;;;-0.70;99.90;;;;;;5076371;28;20260;-86
2022/12/12 01:35:12;;;;;;;20.50;15.17;;;-0.70;99.90;;;;;;5074354;28;20182;-86
2022/12/12 01:37:39;;;;;;;17.37;15.43;;;-0.70;99.90;;;;;;5074989;28;20242;-86
2022/12/12 01:40:11;;;;;;;23.17;16.57;;;-0.70;99.90;;;;;;5084027;28;20182;-86
2022/12/12 01:43:02;;;;;;;21.97;15.13;;;-0.80;99.90;;;;;;5097383;28;20242;-91
2022/12/12 01:46:21;;;;;;;17.50;13.63;;;-0.80;99.90;;;;;;5088585;28;20181;-88
2022/12/12 01:49:26;;;;;;;23.93;14.90;;;-0.80;99.90;;;;;;5065042;28;20336;-88
2022/12/12 01:52:05;;;;;;;20.10;15.00;;;-0.90;99.90;;;;;;5096244;28;20225;-87
2022/12/12 01:54:39;;;;;;;19.20;14.90;;;-0.90;99.90;;;;;;5096502;28;20188;-87
2022/12/12 01:57:12;;;;;;;20.07;15.20;;;-1.00;99.90;;;;;;5080838;28;20227;-86
2022/12/12 01:59:43;;;;;;;21.07;14.50;;;-1.00;99.90;;;;;;5081110;28;20215;-86
2022/12/12 02:02:14;;;;;;;20.23;14.57;;;-1.00;99.90;;;;;;5080659;28;20174;-86
2022/12/12 02:04:41;;;;;;;18.50;13.83;;;-1.00;99.90;;;;;;5081385;28;20540;-86
2022/12/12 02:07:12;;;;;;;20.40;13.67;;;-1.10;99.90;;;;;;5078766;28;20202;-86
2022/12/12 02:13:09;;;;;;;18.03;13.23;;;-1.20;99.90;;;;;;5056868;28;20190;-86
2022/12/12 02:15:56;;;;;;;16.37;12.50;;;-1.20;99.90;;;;;;5070851;28;20187;-86
2022/12/12 02:18:41;;;;;;;18.77;13.20;;;-1.30;99.90;;;;;;5067187;28;20218;-86
2022/12/12 02:21:34;;;;;;;19.57;13.50;;;-1.40;99.90;;;;;;5056765;28;20182;-86
2022/12/12 02:24:26;;;;;;;19.80;14.27;;;-1.50;99.90;;;;;;5058831;28;20179;-86
2022/12/12 02:27:29;;;;;;;26.30;15.57;;;-1.50;99.90;;;;;;5055940;28;20179;-86
2022/12/12 02:30:39;;;;;;;;;;;;;;;;;;;;;
2022/12/12 02:34:08;;;;;;;20.27;12.80;;;-1.60;99.90;;;;;;5030406;28;20201;-86
2022/12/12 02:36:54;;;;;;;21.57;13.07;;;-1.60;99.90;;;;;;5014256;28;20237;-85
2022/12/12 02:39:53;;;;;;;17.90;13.40;;;-1.70;99.90;;;;;;5054806;28;20206;-87
2022/12/12 02:42:45;;;;;;;19.63;13.53;;;-1.80;99.90;;;;;;5054786;28;20216;-87
2022/12/12 02:45:42;;;;;;;17.73;13.57;;;-2.00;99.90;;;;;;5053699;28;20661;-88
2022/12/12 02:48:12;;;;;;;18.87;13.70;;;-2.00;99.90;;;;;;5055904;28;20214;-87
2022/12/12 02:50:40;;;;;;;21.07;14.37;;;-2.10;99.90;;;;;;5056495;28;20706;-86
2022/12/12 02:53:06;;;;;;;22.73;14.93;;;-2.10;99.90;;;;;;5075899;28;20174;-86
2022/12/12 02:55:54;;;;;;;18.67;13.60;;;-2.30;99.90;;;;;;5076798;28;20186;-87
2022/12/12 02:58:36;;;;;;;23.00;15.53;;;-2.30;99.90;;;;;;5070847;28;20205;-86
2022/12/12 03:01:22;;;;;;;23.87;17.37;;;-2.30;99.90;;;;;;5058164;28;20214;-86
2022/12/12 03:10:15;;;;;;;21.97;15.30;;;-2.40;99.90;;;;;;5100937;28;20205;-86
2022/12/12 03:12:50;;;;;;;19.30;14.30;;;-2.40;99.90;;;;;;5099606;28;20173;-86
2022/12/12 03:15:29;;;;;;;18.30;13.87;;;-2.40;99.90;;;;;;5089650;28;20178;-87
2022/12/12 03:18:10;;;;;;;20.10;15.10;;;-2.40;99.90;;;;;;5088570;28;20225;-86
2022/12/12 03:20:47;;;;;;;24.80;16.07;;;-2.50;99.90;;;;;;5078690;28;20186;-87
2022/12/12 03:23:21;;;;;;;24.03;15.37;;;-2.60;99.90;;;;;;5081630;28;20605;-86
2022/12/12 03:26:15;;;;;;;22.10;15.70;;;-2.60;99.90;;;;;;5087320;28;20181;-86
2022/12/12 03:28:53;;;;;;;23.20;14.40;;;-2.70;99.90;;;;;;5076368;28;20221;-86
2022/12/12 03:31:27;;;;;;;24.83;15.40;;;-2.80;99.90;;;;;;5089228;28;20308;-86
2022/12/12 03:34:09;;;;;;;24.27;14.93;;;-2.80;99.90;;;;;;5095217;28;20173;-85
2022/12/12 03:36:51;;;;;;;29.87;17.93;;;-2.90;99.90;;;;;;5093817;28;20208;-86
2022/12/12 03:39:24;;;;;;;26.10;17.20;;;-2.90;99.90;;;;;;5095412;28;20229;-86
2022/12/12 03:41:57;;;;;;;25.40;16.97;;;-3.00;99.90;;;;;;5095639;28;20220;-86
2022/12/12 03:44:35;;;;;;;26.50;16.63;;;-3.00;99.90;;;;;;5086608;28;20652;-86
2022/12/12 03:47:07;;;;;;;25.63;18.27;;;-3.00;99.90;;;;;;5095777;28;20184;-86
2022/12/12 03:49:54;;;;;;;28.47;18.43;;;-2.90;99.90;;;;;;5089947;28;20258;-86
2022/12/12 03:52:38;;;;;;;29.27;18.50;;;-2.80;99.90;;;;;;5088695;28;20261;-86
2022/12/12 03:55:23;;;;;;;27.27;17.33;;;-2.80;99.90;;;;;;5087082;28;20204;-86
2022/12/12 03:57:58;;;;;;;25.00;17.47;;;-2.80;99.90;;;;;;5086014;28;20612;-87
2022/12/12 04:00:25;;;;;;;24.50;16.70;;;-2.70;99.90;;;;;;5084969;28;20215;-86
2022/12/12 04:03:24;;;;;;;27.40;17.60;;;-2.70;99.90;;;;;;5084340;28;20204;-86
2022/12/12 04:08:38;;;;;;;25.17;16.20;;;-2.60;99.90;;;;;;5099597;28;20190;-85
2022/12/12 04:14:40;;;;;;;28.20;17.87;;;-2.70;99.90;;;;;;5097305;28;20181;-86
2022/12/12 04:17:14;;;;;;;33.97;19.80;;;-2.60;99.90;;;;;;5085081;28;20256;-86
2022/12/12 04:28:53;;;;;;;25.47;18.00;;;-2.50;99.90;;;;;;5099198;28;20241;-85
2022/12/12 04:31:23;;;;;;;26.63;16.43;;;-2.50;99.90;;;;;;5087426;28;20212;-87
2022/12/12 04:33:56;;;;;;;27.10;17.97;;;-2.50;99.90;;;;;;5076983;28;20220;-86
2022/12/12 04:36:23;;;;;;;29.93;17.07;;;-2.40;99.90;;;;;;5065117;28;20238;-85
2022/12/12 04:38:53;;;;;;;28.57;17.93;;;-2.30;99.90;;;;;;5064894;28;20194;-86
2022/12/12 04:41:25;;;;;;;27.83;18.00;;;-2.30;99.90;;;;;;5065018;28;20179;-85
2022/12/12 04:43:54;;;;;;;25.33;17.47;;;-2.30;99.90;;;;;;5074976;28;20188;-86
2022/12/12 04:46:25;;;;;;;30.07;18.87;;;-2.30;99.90;;;;;;5094680;28;20257;-86
2022/12/12 04:49:09;;;;;;;24.47;16.67;;;-2.30;99.90;;;;;;5097939;28;20229;-85
2022/12/12 04:51:43;;;;;;;29.17;17.80;;;-2.30;99.90;;;;;;5092700;28;20247;-86
2022/12/12 04:54:30;;;;;;;25.50;16.67;;;-2.30;99.90;;;;;;5076398;28;20190;-86
2022/12/12 04:57:00;;;;;;;28.27;17.67;;;-2.30;99.90;;;;;;5074298;28;20560;-86
2022/12/12 04:59:26;;;;;;;25.70;17.67;;;-2.30;99.90;;;;;;5066299;28;20198;-86
2022/12/12 05:02:21;;;;;;;25.43;17.43;;;-2.30;99.90;;;;;;5066133;28;20232;-87
2022/12/12 05:05:01;;;;;;;28.10;17.07;;;-2.20;99.90;;;;;;5084405;28;20221;-86
2022/12/12 05:07:36;;;;;;;27.67;17.30;;;-2.20;99.90;;;;;;5092049;28;20205;-86
2022/12/12 05:10:05;;;;;;;23.70;16.03;;;-2.10;99.90;;;;;;5094245;28;20185;-87
2022/12/12 05:12:46;;;;;;;29.13;17.37;;;-2.10;99.90;;;;;;5063083;28;20193;-86
2022/12/12 05:15:48;;;;;;;28.40;17.67;;;-2.10;99.90;;;;;;5088419;28;20254;-87
2022/12/12 05:19:07;;;;;;;24.47;16.53;;;-2.10;99.90;;;;;;5072908;28;20258;-87
2022/12/12 05:21:33;;;;;;;25.07;15.40;;;-2.10;99.90;;;;;;5078765;28;20182;-87
2022/12/12 05:24:04;;;;;;;28.63;16.13;;;-2.10;99.90;;;;;;5084632;28;20174;-84
2022/12/12 05:27:05;;;;;;;24.70;16.03;;;-2.10;99.90;;;;;;5049885;28;20193;-86
2022/12/12 05:29:34;;;;;;;26.93;17.57;;;-2.10;99.90;;;;;;5063250;28;20216;-85
2022/12/12 05:32:02;;;;;;;28.03;19.30;;;-2.10;99.90;;;;;;5063430;28;20214;-84
2022/12/12 05:34:28;;;;;;;27.57;18.87;;;-2.00;99.90;;;;;;5071354;28;20174;-86
2022/12/12 05:36:57;;;;;;;31.40;20.70;;;-2.00;99.90;;;;;;5081376;28;20205;-84
2022/12/12 05:39:38;;;;;;;30.30;18.03;;;-2.00;99.90;;;;;;5082695;28;20279;-87
2022/12/12 05:42:09;;;;;;;30.03;18.47;;;-1.90;99.90;;;;;;5080971;28;20517;-86
2022/12/12 05:44:35;;;;;;;27.40;18.27;;;-1.90;99.90;;;;;;5083400;28;20216;-85
2022/12/12 05:47:04;;;;;;;26.67;19.23;;;-1.90;99.90;;;;;;5076415;28;20175;-85
2022/12/12 05:49:36;;;;;;;25.20;18.00;;;-1.90;99.90;;;;;;5072643;28;20317;-87
2022/12/12 05:52:04;;;;;;;26.57;17.20;;;-1.80;99.90;;;;;;5064468;28;20210;-87
2022/12/12 05:54:30;;;;;;;24.17;16.97;;;-1.80;99.90;;;;;;5063604;28;20247;-86
2022/12/12 05:56:59;;;;;;;24.90;17.53;;;-1.80;99.90;;;;;;5070191;28;20174;-83
2022/12/12 05:59:28;;;;;;;24.87;17.07;;;-1.70;99.90;;;;;;5081935;28;20211;-88
2022/12/12 06:01:59;;;;;;;23.57;15.97;;;-1.70;99.90;;;;;;5083428;28;20215;-87
2022/12/12 06:04:28;;;;;;;29.70;18.37;;;-1.70;99.90;;;;;;5075484;28;20190;-88
2022/12/12 06:06:54;;;;;;;25.37;16.87;;;-1.60;99.90;;;;;;5055051;28;20180;-87
2022/12/12 06:09:20;;;;;;;26.13;17.37;;;-1.60;99.90;;;;;;5067261;28;20216;-87
2022/12/12 06:11:51;;;;;;;26.20;17.10;;;-1.60;99.90;;;;;;5076318;28;20212;-87
2022/12/12 06:14:17;;;;;;;31.80;18.80;;;-1.60;99.90;;;;;;5074216;28;20663;-87
2022/12/12 06:16:46;;;;;;;26.53;17.57;;;-1.50;99.90;;;;;;5073969;28;20319;-86
2022/12/12 06:19:12;;;;;;;26.67;16.53;;;-1.50;99.90;;;;;;5074914;28;20197;-84
2022/12/12 06:21:38;;;;;;;27.00;16.43;;;-1.50;99.90;;;;;;5076520;28;20180;-84
2022/12/12 06:24:06;;;;;;;26.13;16.80;;;-1.60;99.90;;;;;;5072190;28;20274;-85
2022/12/12 06:26:32;;;;;;;23.97;16.50;;;-1.60;99.90;;;;;;5066965;28;20212;-83
2022/12/12 06:28:58;;;;;;;25.97;17.57;;;-1.60;99.90;;;;;;5086400;28;20201;-84
2022/12/12 06:31:24;;;;;;;28.57;17.67;;;-1.70;99.90;;;;;;5096018;28;20213;-83
2022/12/12 06:33:50;;;;;;;31.17;19.17;;;-1.60;99.90;;;;;;5094287;28;20178;-84
2022/12/12 06:36:23;;;;;;;30.37;19.63;;;-1.60;99.90;;;;;;5091007;28;20180;-83
2022/12/12 06:38:50;;;;;;;30.43;19.37;;;-1.60;99.90;;;;;;5083599;28;20201;-84
2022/12/12 06:41:17;;;;;;;30.83;20.57;;;-1.60;99.90;;;;;;5073990;28;20604;-81
2022/12/12 06:43:43;;;;;;;32.93;21.00;;;-1.50;99.90;;;;;;5059096;28;20232;-86
2022/12/12 06:46:18;;;;;;;34.93;20.90;;;-1.50;99.90;;;;;;5058646;28;20198;-87
2022/12/12 06:48:45;;;;;;;37.20;19.67;;;-1.50;99.90;;;;;;5088519;23;20269;-76
2022/12/12 06:51:14;;;;;;;31.63;18.97;;;-1.40;99.90;;;;;;5102915;28;20251;-75
2022/12/12 06:53:40;;;;;;;34.97;21.53;;;-1.40;99.90;;;;;;5098366;28;20234;-77
2022/12/12 06:56:14;;;;;;;37.27;22.40;;;-1.40;99.90;;;;;;5094996;28;20173;-78
2022/12/12 06:58:40;;;;;;;34.03;22.37;;;-1.30;99.90;;;;;;5099170;28;20234;-68
2022/12/12 07:01:07;;;;;;;39.80;22.83;;;-1.40;99.90;;;;;;5103224;28;20192;-68
2022/12/12 07:03:33;;;;;;;37.67;23.43;;;-1.40;99.90;;;;;;5094797;28;20553;-68
2022/12/12 07:06:00;;;;;;;36.53;23.27;;;-1.40;99.90;;;;;;5094578;28;20177;-68
2022/12/12 07:08:27;;;;;;;40.97;25.30;;;-1.40;99.90;;;;;;5094024;28;20211;-68
2022/12/12 07:10:53;;;;;;;35.37;22.60;;;-1.40;99.90;;;;;;5094259;28;20218;-68
2022/12/12 07:13:19;;;;;;;41.03;23.77;;;-1.40;99.90;;;;;;5104334;28;20180;-68
2022/12/12 07:15:48;;;;;;;40.23;24.00;;;-1.50;99.90;;;;;;5114572;28;20199;-69
2022/12/12 07:18:16;;;;;;;34.83;22.27;;;-1.50;99.90;;;;;;5097597;28;20307;-68
2022/12/12 07:20:44;;;;;;;41.57;24.30;;;-1.50;99.90;;;;;;5093148;28;20204;-68
2022/12/12 07:23:11;;;;;;;35.43;23.60;;;-1.60;99.90;;;;;;5102565;28;20667;-68
2022/12/12 07:25:38;;;;;;;35.53;21.53;;;-1.60;99.90;;;;;;5114603;28;20184;-68
2022/12/12 07:28:04;;;;;;;35.23;23.83;;;-1.70;99.90;;;;;;5114082;28;20594;-70
2022/12/12 07:30:30;;;;;;;37.73;23.70;;;-1.60;99.90;;;;;;5114246;28;20211;-69
2022/12/12 07:32:56;;;;;;;35.77;23.00;;;-1.70;99.90;;;;;;5107327;28;20174;-69
2022/12/12 07:35:22;;;;;;;35.53;23.40;;;-1.70;99.90;;;;;;5094097;28;20177;-69
2022/12/12 07:37:48;;;;;;;33.77;23.13;;;-1.70;99.90;;;;;;5092068;28;20173;-69
2022/12/12 07:40:14;;;;;;;36.83;23.90;;;-1.60;99.90;;;;;;5093724;28;20270;-69
2022/12/12 07:42:40;;;;;;;33.57;22.27;;;-1.60;99.90;;;;;;5098156;28;20283;-69
2022/12/12 07:45:06;;;;;;;31.20;21.57;;;-1.60;99.90;;;;;;5113875;28;20267;-70
2022/12/12 07:47:32;;;;;;;34.27;21.70;;;-1.60;99.90;;;;;;5100828;28;20596;-69
2022/12/12 07:49:58;;;;;;;35.73;21.83;;;-1.60;99.90;;;;;;5093031;28;20252;-70
2022/12/12 07:52:23;;;;;;;39.00;22.80;;;-1.50;99.90;;;;;;5092522;28;20173;-70
2022/12/12 07:54:49;;;;;;;38.27;22.43;;;-1.50;99.90;;;;;;5093071;28;20177;-70
2022/12/12 07:57:15;;;;;;;37.37;23.47;;;-1.50;99.90;;;;;;5091136;28;20614;-69
2022/12/12 07:59:41;;;;;;;34.50;22.70;;;-1.40;99.90;;;;;;5076865;28;20230;-70
2022/12/12 08:02:08;;;;;;;32.63;23.33;;;-1.40;99.90;;;;;;5073404;28;20216;-70
2022/12/12 08:04:34;;;;;;;33.57;24.57;;;-1.40;99.90;;;;;;5093491;28;20183;-69
2022/12/12 08:07:00;;;;;;;36.53;24.40;;;-1.40;99.90;;;;;;5093017;28;20560;-71
2022/12/12 08:09:26;;;;;;;38.63;27.43;;;-1.40;99.90;;;;;;5093842;28;20208;-71
2022/12/12 08:11:55;;;;;;;35.27;24.80;;;-1.40;99.90;;;;;;5092534;28;20224;-70
2022/12/12 08:14:21;;;;;;;35.10;23.53;;;-1.50;99.90;;;;;;5087132;28;20177;-69
2022/12/12 08:16:47;;;;;;;35.03;24.37;;;-1.50;99.90;;;;;;5079722;28;20184;-70
2022/12/12 08:19:13;;;;;;;34.40;22.90;;;-1.60;99.90;;;;;;5093331;28;20193;-70
2022/12/12 08:21:39;;;;;;;32.90;21.70;;;-1.60;99.90;;;;;;5115784;28;20169;-70
2022/12/12 08:24:05;;;;;;;30.33;21.00;;;-1.60;99.90;;;;;;5107488;28;20652;-70
2022/12/12 08:26:31;;;;;;;35.60;22.77;;;-1.70;99.90;;;;;;5114053;28;20649;-70
2022/12/12 08:28:57;;;;;;;36.43;24.83;;;-1.70;99.90;;;;;;5094702;28;20216;-70
2022/12/12 08:31:24;;;;;;;36.20;26.00;;;-1.70;99.90;;;;;;5091968;28;20215;-70
2022/12/12 08:33:50;;;;;;;39.50;29.73;;;-1.60;99.90;;;;;;5093455;28;20234;-70
2022/12/12 08:36:18;;;;;;;37.07;22.17;;;-1.40;99.90;;;;;;5092861;28;20185;-69
2022/12/12 08:38:44;;;;;;;36.50;23.00;;;-0.90;99.90;;;;;;5092534;28;20200;-69
2022/12/12 08:41:12;;;;;;;36.23;21.50;;;-0.40;99.90;;;;;;5084332;28;20655;-69
2022/12/12 08:43:39;;;;;;;36.53;21.37;;;0.00;99.90;;;;;;5091216;28;20562;-69
2022/12/12 08:46:06;;;;;;;32.70;19.70;;;0.20;99.90;;;;;;5091232;28;20188;-70
2022/12/12 08:48:32;;;;;;;30.10;18.77;;;0.60;99.90;;;;;;5091465;28;20283;-70
2022/12/12 08:50:58;;;;;;;29.70;18.37;;;1.10;99.90;;;;;;5101363;28;20239;-70
2022/12/12 08:53:24;;;;;;;26.50;17.90;;;1.60;99.90;;;;;;5095549;28;20656;-70
2022/12/12 08:55:50;;;;;;;29.57;20.47;;;2.00;99.90;;;;;;5079205;28;20593;-70
2022/12/12 08:58:16;;;;;;;28.57;20.90;;;2.40;99.90;;;;;;5091454;28;20644;-70
2022/12/12 09:00:42;;;;;;;27.83;18.97;;;2.60;99.90;;;;;;5098846;28;20217;-70
2022/12/12 09:03:07;;;;;;;25.50;18.30;;;2.50;99.90;;;;;;5094939;28;20705;-69
2022/12/12 09:05:34;;;;;;;25.87;19.03;;;2.90;99.90;;;;;;5091660;28;20187;-70
2022/12/12 09:08:00;;;;;;;24.10;18.87;;;2.70;99.90;;;;;;5091572;28;20234;-70
2022/12/12 09:10:27;;;;;;;28.73;18.87;;;3.20;99.90;;;;;;5092321;28;20236;-70
2022/12/12 09:12:53;;;;;;;22.87;17.63;;;3.60;99.90;;;;;;5091261;28;20177;-70
2022/12/12 09:15:19;;;;;;;24.70;17.73;;;3.80;99.90;;;;;;5091853;28;20181;-69
2022/12/12 09:17:45;;;;;;;27.23;17.97;;;4.10;99.90;;;;;;5090264;28;20311;-70
2022/12/12 09:20:10;;;;;;;25.73;18.33;;;4.00;99.90;;;;;;5094832;28;20196;-70
2022/12/12 09:22:36;;;;;;;29.40;20.83;;;4.10;99.90;;;;;;5112510;28;20191;-70
2022/12/12 09:25:03;;;;;;;26.90;18.57;;;4.20;99.90;;;;;;5112284;28;20180;-70
2022/12/12 09:27:30;;;;;;;25.80;18.93;;;4.80;99.90;;;;;;5109481;28;20176;-70
2022/12/12 09:29:55;;;;;;;27.63;19.37;;;5.50;99.90;;;;;;5089870;28;20341;-69
2022/12/12 09:32:21;;;;;;;23.63;17.90;;;6.00;99.90;;;;;;5110816;28;20247;-70
2022/12/12 09:34:47;;;;;;;25.70;18.63;;;6.50;99.90;;;;;;5112322;28;20188;-70
2022/12/12 09:37:13;;;;;;;25.03;18.20;;;6.60;99.90;;;;;;5111806;28;20923;-70
2022/12/12 09:39:39;;;;;;;24.70;18.17;;;6.90;99.90;;;;;;5112172;28;20203;-70
2022/12/12 09:42:16;;;;;;;25.03;18.50;;;6.70;99.90;;;;;;5092316;28;20364;-70
2022/12/12 09:44:42;;;;;;;23.93;19.50;;;6.60;99.90;;;;;;5092851;28;20714;-70
2022/12/12 09:47:17;;;;;;;26.70;20.10;;;6.60;99.90;;;;;;5092222;28;20185;-70
2022/12/12 09:49:53;;;;;;;23.47;18.53;;;7.00;99.90;;;;;;5091658;28;20576;-70
2022/12/12 09:52:32;;;;;;;24.03;17.07;;;7.20;99.90;;;;;;5098804;28;20352;-69
2022/12/12 09:54:59;;;;;;;24.97;18.87;;;6.90;99.90;;;;;;5072100;28;20185;-69
2022/12/12 09:57:36;;;;;;;22.87;16.30;;;7.10;99.90;;;;;;5075240;28;20174;-70
2022/12/12 10:00:08;;;;;;;24.33;18.03;;;7.60;99.90;;;;;;5091014;28;20696;-70
2022/12/12 10:03:01;;;;;;;23.30;16.77;;;7.90;99.90;;;;;;5107644;28;20189;-69
2022/12/12 10:05:43;;;;;;;23.07;17.33;;;7.90;99.90;;;;;;5090297;28;20669;-69
2022/12/12 10:08:34;;;;;;;23.77;17.37;;;7.70;99.90;;;;;;5090421;28;20204;-69
2022/12/12 10:11:48;;;;;;;24.67;16.97;;;8.00;99.90;;;;;;5089695;28;20206;-69
2022/12/12 10:13:58;;;;;;;23.80;17.50;;;8.00;99.90;;;;;;5090472;28;20264;-69
2022/12/12 10:16:25;;;;;;;25.93;17.33;;;7.40;99.90;;;;;;5091043;28;20177;-69
2022/12/12 10:18:53;;;;;;;26.43;17.43;;;7.60;99.90;;;;;;5089747;28;20192;-69
2022/12/12 10:21:29;;;;;;;24.40;18.27;;;8.10;99.90;;;;;;5102108;28;20203;-69
2022/12/12 10:24:01;;;;;;;23.23;17.17;;;8.10;99.90;;;;;;5110871;28;20182;-70
2022/12/12 10:26:29;;;;;;;22.13;16.83;;;7.90;99.90;;;;;;5111133;28;20664;-70
2022/12/12 10:29:00;;;;;;;21.63;15.67;;;7.60;99.90;;;;;;5109334;28;20574;-70
2022/12/12 10:31:38;;;;;;;21.40;16.07;;;7.70;99.90;;;;;;5098763;28;20766;-70
2022/12/12 10:34:25;;;;;;;23.40;16.60;;;7.60;99.90;;;;;;5090805;28;20191;-70
2022/12/12 10:36:54;;;;;;;21.77;17.00;;;8.00;99.90;;;;;;5090392;28;20176;-70
2022/12/12 10:39:32;;;;;;;25.43;17.60;;;8.20;99.90;;;;;;5089451;28;20287;-70
2022/12/12 10:42:24;;;;;;;23.00;17.37;;;9.00;99.90;;;;;;5106963;28;20187;-70
2022/12/12 10:44:53;;;;;;;23.53;16.73;;;9.30;99.40;;;;;;5095680;28;20773;-69
2022/12/12 10:47:19;;;;;;;23.67;17.10;;;9.10;99.10;;;;;;5099001;28;20181;-69
2022/12/12 10:49:45;;;;;;;22.97;16.97;;;8.80;99.20;;;;;;5090556;28;20639;-69
2022/12/12 10:52:16;;;;;;;29.30;18.07;;;8.70;99.00;;;;;;5108026;28;20211;-70
2022/12/12 10:54:55;;;;;;;21.83;16.17;;;9.20;98.90;;;;;;5111109;28;20190;-69
2022/12/12 10:57:32;;;;;;;22.60;16.30;;;9.70;97.50;;;;;;5110616;28;20180;-70
2022/12/12 10:59:58;;;;;;;21.43;15.67;;;10.50;95.60;;;;;;5110731;28;20196;-69
2022/12/12 11:02:29;;;;;;;20.13;15.53;;;10.40;94.70;;;;;;5091125;28;20233;-69
2022/12/12 11:05:13;;;;;;;21.17;16.57;;;10.20;95.10;;;;;;5099663;28;20196;-72
2022/12/12 11:07:41;;;;;;;22.00;15.70;;;10.60;93.70;;;;;;5110526;28;20269;-71
2022/12/12 11:10:26;;;;;;;22.57;15.70;;;10.60;92.50;;;;;;5093541;28;20212;-71
2022/12/12 11:13:17;;;;;;;22.10;15.83;;;11.20;91.10;;;;;;5090916;28;20596;-71
2022/12/12 11:15:49;;;;;;;21.37;16.07;;;11.00;90.20;;;;;;5093750;28;20888;-74
2022/12/12 11:18:20;;;;;;;23.03;15.50;;;9.90;92.10;;;;;;5083545;28;20185;-73
2022/12/12 11:21:09;;;;;;;21.10;15.60;;;9.90;92.50;;;;;;5085946;28;20189;-73
2022/12/12 11:23:39;;;;;;;21.43;16.00;;;9.80;92.20;;;;;;5090945;28;20516;-73
2022/12/12 11:26:12;;;;;;;21.27;15.43;;;9.70;93.00;;;;;;5090195;28;20222;-73
2022/12/12 11:28:39;;;;;;;22.80;16.63;;;9.90;92.80;;;;;;5090906;28;20218;-73
2022/12/12 11:31:09;;;;;;;21.63;16.53;;;10.10;91.60;;;;;;5093979;28;20209;-72
2022/12/12 11:33:45;;;;;;;23.07;14.73;;;9.80;91.50;;;;;;5093965;28;20600;-72
2022/12/12 11:36:17;;;;;;;19.53;15.90;;;9.70;91.60;;;;;;5092966;28;20185;-74
2022/12/12 11:38:50;;;;;;;22.03;16.90;;;8.30;93.40;;;;;;5105769;28;20197;-71
2022/12/12 11:41:16;;;;;;;19.50;16.53;;;8.60;93.90;;;;;;5103710;28;20643;-72
2022/12/12 11:43:48;;;;;;;22.77;18.10;;;9.50;93.50;;;;;;5092524;28;20230;-72
2022/12/12 11:46:13;;;;;;;20.53;16.70;;;9.70;92.30;;;;;;5093912;28;20212;-72
2022/12/12 11:48:46;;;;;;;21.20;15.50;;;9.80;92.30;;;;;;5101325;28;20765;-72
2022/12/12 11:51:13;;;;;;;16.27;13.67;;;10.20;91.80;;;;;;5098100;28;20208;-72
2022/12/12 11:53:43;;;;;;;20.00;14.27;;;10.80;90.60;;;;;;5111632;28;20259;-72
2022/12/12 11:56:20;;;;;;;19.40;14.57;;;10.80;89.20;;;;;;5092598;28;20208;-72
2022/12/12 11:58:56;;;;;;;17.37;13.77;;;11.00;88.80;;;;;;5095723;28;20192;-72
2022/12/12 12:01:44;;;;;;;17.03;14.73;;;11.00;89.00;;;;;;5114231;28;20587;-72
2022/12/12 12:04:10;;;;;;;19.10;14.93;;;11.20;88.60;;;;;;5114182;28;20191;-72
2022/12/12 12:06:48;;;;;;;16.87;14.50;;;11.70;86.50;;;;;;5113994;28;20179;-67
2022/12/12 12:09:28;;;;;;;19.83;14.70;;;12.00;84.00;;;;;;5106227;28;20703;-66
2022/12/12 12:12:14;;;;;;;20.30;14.17;;;12.50;81.70;;;;;;5093686;28;20307;-66
2022/12/12 12:14:43;;;;;;;17.10;14.10;;;13.10;79.20;;;;;;5092389;28;20223;-69
2022/12/12 12:17:34;;;;;;;18.47;13.47;;;12.30;79.10;;;;;;5091461;28;20192;-69
2022/12/12 12:20:18;;;;;;;18.07;14.40;;;12.50;78.30;;;;;;5083183;28;20212;-69
2022/12/12 12:22:58;;;;;;;17.57;13.63;;;12.70;75.70;;;;;;5114338;28;20200;-70
2022/12/12 12:25:53;;;;;;;18.57;13.17;;;12.30;77.70;;;;;;5112787;28;20230;-69
2022/12/12 12:28:41;;;;;;;17.13;13.10;;;12.20;78.50;;;;;;5113261;28;20282;-69
2022/12/12 12:31:14;;;;;;;17.20;13.63;;;11.70;78.60;;;;;;5072979;28;20354;-69
2022/12/12 12:33:46;;;;;;;16.30;12.80;;;11.90;78.20;;;;;;5072926;28;20174;-69
2022/12/12 12:36:21;;;;;;;19.93;12.97;;;12.90;74.30;;;;;;5072969;28;20174;-69
2022/12/12 12:38:56;;;;;;;16.47;12.30;;;12.20;74.90;;;;;;5077063;28;20771;-69
2022/12/12 12:41:40;;;;;;;19.10;12.87;;;12.90;72.90;;;;;;5112447;28;20274;-69
2022/12/12 12:44:33;;;;;;;17.87;13.07;;;12.60;73.10;;;;;;5113304;28;20671;-69
2022/12/12 12:47:14;;;;;;;17.43;11.97;;;12.10;74.40;;;;;;5111610;28;20184;-69
2022/12/12 12:49:52;;;;;;;13.20;10.97;;;11.90;73.90;;;;;;5124657;22;20572;-68
2022/12/12 12:52:30;;;;;;;17.77;13.67;;;12.20;73.90;;;;;;5091621;28;20205;-69
2022/12/12 12:54:58;;;;;;;14.47;11.43;;;12.10;74.20;;;;;;5092737;28;20184;-68
2022/12/12 12:57:26;;;;;;;15.87;12.57;;;13.00;70.80;;;;;;5092110;28;20181;-67
2022/12/12 12:59:59;;;;;;;17.00;11.87;;;12.70;71.20;;;;;;5101618;28;20267;-69
2022/12/12 13:02:47;;;;;;;13.63;11.77;;;13.70;69.70;;;;;;5111752;28;20263;-67
2022/12/12 13:05:21;;;;;;;13.53;11.37;;;13.10;69.70;;;;;;5086178;28;20577;-67
2022/12/12 13:08:03;;;;;;;15.07;11.50;;;12.90;69.70;;;;;;5072557;28;20197;-68
2022/12/12 13:10:30;;;;;;;14.30;11.83;;;12.90;69.10;;;;;;5096390;28;20201;-67
2022/12/12 13:13:11;;;;;;;12.73;11.40;;;12.60;70.90;;;;;;5091974;28;20279;-69
2022/12/12 13:15:48;;;;;;;14.57;12.00;;;12.10;72.10;;;;;;5091987;28;20181;-67
2022/12/12 13:18:16;;;;;;;13.83;11.73;;;12.20;72.30;;;;;;5089154;28;20188;-67
2022/12/12 13:20:48;;;;;;;13.60;11.03;;;12.90;68.80;;;;;;5088264;28;20200;-69
2022/12/12 13:23:36;;;;;;;14.27;11.07;;;12.80;68.60;;;;;;5092062;28;20173;-68
2022/12/12 13:26:11;;;;;;;14.90;11.40;;;12.60;67.40;;;;;;5091968;28;20178;-70
2022/12/12 13:29:16;;;;;;;12.80;11.03;;;9.80;73.00;;;;;;5091763;28;20184;-68
2022/12/12 13:31:47;;;;;;;16.20;12.00;;;8.80;77.90;;;;;;5112014;28;20238;-67